createdAt,value
2023-04-12T00:03:15.688Z,18.4
2023-04-12T00:13:15.721Z,18.4
2023-04-12T00:23:17.316Z,20.5
2023-04-12T00:33:17.636Z,18.2
2023-04-12T00:43:16.536Z,18.3
2023-04-12T00:53:16.572Z,20.5
2023-04-12T01:03:16.550Z,18.2
2023-04-12T01:13:15.965Z,18.3
2023-04-12T01:23:15.485Z,20.4
2023-04-12T01:43:14.876Z,18.1
2023-04-12T01:53:14.650Z,18.1
2023-04-12T02:03:15.315Z,20.2
2023-04-12T02:13:14.501Z,18.2
2023-04-12T02:23:14.243Z,18.3
2023-04-12T02:33:13.385Z,18.1
2023-04-12T02:43:14.165Z,17.8
2023-04-12T02:53:14.172Z,17.9
2023-04-12T03:03:09.420Z,20.3
2023-04-12T03:13:10.145Z,20.6
2023-04-12T03:23:10.180Z,18.1
2023-04-12T03:33:11.829Z,18
2023-04-12T03:43:12.641Z,20.5
2023-04-12T03:53:12.342Z,18.1
2023-04-12T04:03:14.044Z,18.2
2023-04-12T04:13:16.040Z,20.8
2023-04-12T04:23:17.586Z,18.1
2023-04-12T04:33:18.749Z,18.6
2023-04-12T04:43:20.345Z,18.3
2023-04-12T04:53:21.936Z,18.4
2023-04-12T05:03:22.586Z,18.2
2023-04-12T05:13:23.364Z,20.8
2023-04-12T05:23:23.356Z,18.4
2023-04-12T05:33:23.297Z,18.4
2023-04-12T05:43:23.089Z,18.4
2023-04-12T05:53:22.848Z,18.4
2023-04-12T06:03:22.894Z,18.6
2023-04-12T06:13:23.156Z,18.4
2023-04-12T06:23:23.122Z,18.2
2023-04-12T06:33:22.261Z,18.3
2023-04-12T06:43:21.953Z,18.9
2023-04-12T06:53:22.626Z,18.3
2023-04-12T07:03:22.481Z,19.3
2023-04-12T07:13:27.639Z,24.3
2023-04-12T07:23:30.090Z,20.6
2023-04-12T07:33:29.167Z,19.4
2023-04-12T07:43:34.857Z,22.9
2023-04-12T07:53:42.381Z,22
2023-04-12T08:03:44.097Z,21.8
2023-04-12T08:13:46.863Z,21.5
2023-04-12T08:23:52.672Z,24.9
2023-04-12T08:34:06.718Z,25.6
2023-04-12T08:39:48.038Z,23.5
2023-04-12T08:49:58.827Z,26.1
2023-04-12T09:03:09.828Z,25.8
2023-04-12T09:13:15.918Z,25.3
2023-04-12T09:23:27.953Z,24.3
2023-04-12T09:27:20.532Z,23.4
2023-04-12T09:37:29.888Z,24.6
2023-04-12T09:47:34.631Z,23.9
2023-04-12T09:57:39.996Z,25.1
2023-04-12T10:07:43.892Z,21.4
2023-04-12T10:17:47.233Z,24.4
2023-04-12T10:27:51.763Z,23.9
2023-04-12T10:37:54.398Z,24.2
2023-04-12T10:47:56.385Z,23.7
2023-04-12T10:57:58.350Z,23.9
2023-04-12T11:08:01.327Z,23.9
2023-04-12T11:18:05.014Z,25.5
2023-04-12T11:28:17.501Z,25.9
2023-04-12T11:38:11.595Z,22.5
2023-04-12T11:48:12.950Z,21.7
2023-04-12T11:58:16.251Z,21.3
2023-04-12T12:08:15.081Z,21.1
2023-04-12T12:18:14.120Z,21.5
2023-04-12T12:28:13.661Z,21.8
2023-04-12T12:38:12.924Z,21.2
2023-04-12T12:48:12.226Z,21
2023-04-12T12:58:11.734Z,20.9
2023-04-12T13:08:11.424Z,20.8
2023-04-12T13:18:12.609Z,20.4
2023-04-12T13:28:11.467Z,20.5
2023-04-12T13:38:12.121Z,22.7
2023-04-12T13:48:13.568Z,22.9
2023-04-12T13:58:15.691Z,19.9
2023-04-12T14:08:17.709Z,22.6
2023-04-12T14:18:19.252Z,22.9
2023-04-12T14:28:20.675Z,19.9
2023-04-12T14:38:20.027Z,19.8
2023-04-12T14:48:19.975Z,19.8
2023-04-12T14:58:18.619Z,19.7
2023-04-12T15:03:09.825Z,22.6
2023-04-12T15:13:11.938Z,19.9
2023-04-12T15:23:14.360Z,22.2
2023-04-12T15:33:15.416Z,19.9
2023-04-12T15:43:17.155Z,19.9
2023-04-12T15:53:17.374Z,22.2
2023-04-12T16:03:18.195Z,19.8
2023-04-12T16:13:21.274Z,19.5
2023-04-12T16:23:23.102Z,19.6
2023-04-12T16:33:25.526Z,19.6
2023-04-12T16:43:27.892Z,21.7
2023-04-12T16:53:32.698Z,21.6
2023-04-12T17:03:36.951Z,21.5
2023-04-12T17:13:40.435Z,21.6
2023-04-12T17:23:43.495Z,21.4
2023-04-12T17:33:47.101Z,21.4
2023-04-12T17:43:50.402Z,21.2
2023-04-12T17:53:53.904Z,21.3
2023-04-12T18:03:57.456Z,21
2023-04-12T18:14:00.754Z,21.4
2023-04-12T18:24:04.090Z,20.9
2023-04-12T18:34:07.629Z,21
2023-04-12T18:44:10.971Z,20.9
2023-04-12T18:54:14.477Z,20.8
2023-04-12T19:04:17.790Z,20.8
2023-04-12T19:14:24.158Z,20.7
2023-04-12T19:24:24.495Z,20.8
2023-04-12T19:34:27.976Z,20.6
2023-04-12T19:44:31.360Z,20.6
2023-04-12T19:54:34.800Z,20.7
2023-04-12T20:04:38.351Z,20.6
2023-04-12T20:14:41.694Z,20.6
2023-04-12T20:24:45.064Z,20.7
2023-04-12T20:34:48.638Z,20.5
2023-04-12T20:44:51.882Z,20.4
2023-04-12T20:54:55.303Z,20.5
2023-04-12T21:03:07.510Z,20.6
2023-04-12T21:13:10.615Z,20.4
2023-04-12T21:23:13.894Z,20.6
2023-04-12T21:33:17.245Z,20.5
2023-04-12T21:43:20.068Z,20.4
2023-04-12T21:53:23.395Z,20.6
2023-04-12T22:03:27.346Z,20.3
2023-04-12T22:13:32.218Z,20.3
2023-04-12T22:23:36.952Z,20.4
2023-04-12T22:33:41.617Z,20.4
2023-04-12T22:43:45.315Z,20.3
2023-04-12T22:53:49.207Z,20.3
2023-04-12T23:03:53.250Z,20.1
2023-04-12T23:13:56.636Z,20.2
2023-04-12T23:23:59.805Z,20.3
2023-04-12T23:34:03.296Z,20.1
2023-04-12T23:44:06.585Z,19.9
2023-04-12T23:54:09.988Z,19.8
